createdAt,value
2022-08-12T00:02:25.396Z,60.50
2022-08-12T00:07:47.048Z,60.80
2022-08-12T00:13:08.880Z,61.10
2022-08-12T00:18:30.452Z,61.50
2022-08-12T00:23:51.968Z,61.40
2022-08-12T00:29:14.109Z,61.60
2022-08-12T00:34:36.087Z,61.70
2022-08-12T00:40:00.194Z,61.90
2022-08-12T00:45:03.837Z,61.90
2022-08-12T00:50:12.466Z,62.20
2022-08-12T00:55:17.250Z,62.20
2022-08-12T01:00:24.372Z,62.30
2022-08-12T01:05:46.018Z,62.70
2022-08-12T01:11:08.970Z,62.80
2022-08-12T01:16:12.237Z,63.00
2022-08-12T01:21:27.774Z,63.20
2022-08-12T01:26:34.999Z,63.40
2022-08-12T01:31:39.539Z,63.50
2022-08-12T01:36:51.280Z,63.70
2022-08-12T01:41:59.263Z,63.80
2022-08-12T01:47:24.089Z,64.00
2022-08-12T01:52:37.193Z,64.30
2022-08-12T01:57:58.947Z,64.50
2022-08-12T02:03:52.770Z,64.70
2022-08-12T02:09:19.751Z,64.90
2022-08-12T02:14:34.585Z,65.10
2022-08-12T02:20:22.822Z,65.50
2022-08-12T02:25:41.756Z,65.50
2022-08-12T02:30:44.637Z,65.70
2022-08-12T02:35:48.161Z,65.70
2022-08-12T02:40:56.174Z,65.90
2022-08-12T02:46:15.885Z,66.10
2022-08-12T02:51:24.623Z,66.30
2022-08-12T02:56:28.891Z,66.40
2022-08-12T03:01:34.959Z,66.60
2022-08-12T03:06:51.323Z,66.80
2022-08-12T03:12:06.331Z,67.00
2022-08-12T03:17:29.527Z,67.20
2022-08-12T03:22:38.830Z,67.40
2022-08-12T03:27:55.979Z,67.50
2022-08-12T03:33:02.792Z,67.60
2022-08-12T03:38:11.745Z,67.80
2022-08-12T03:43:50.767Z,68.20
2022-08-12T03:49:12.570Z,68.40
2022-08-12T03:54:34.340Z,68.70
2022-08-12T03:59:55.679Z,69.10
2022-08-12T04:04:58.786Z,69.30
2022-08-12T04:10:02.532Z,69.40
2022-08-12T04:15:06.708Z,69.50
2022-08-12T04:20:13.544Z,69.60
2022-08-12T04:25:16.476Z,69.60
2022-08-12T04:30:33.398Z,69.40
2022-08-12T04:35:37.294Z,69.30
2022-08-12T04:40:41.163Z,69.30
2022-08-12T04:45:44.135Z,69.30
2022-08-12T04:50:47.064Z,69.80
2022-08-12T04:55:52.276Z,70.30
2022-08-12T05:00:55.248Z,70.50
2022-08-12T05:05:59.200Z,70.60
2022-08-12T05:11:02.161Z,70.70
2022-08-12T05:16:10.555Z,70.60
2022-08-12T05:21:16.652Z,70.70
2022-08-12T05:26:20.422Z,70.40
2022-08-12T05:31:45.536Z,70.10
2022-08-12T05:36:48.495Z,70.00
2022-08-12T05:41:51.495Z,69.80
2022-08-12T05:46:54.436Z,68.60
2022-08-12T05:51:58.117Z,67.50
2022-08-12T05:57:01.001Z,67.00
2022-08-12T06:02:10.006Z,66.10
2022-08-12T06:08:00.353Z,65.30
2022-08-12T06:12:39.301Z,64.50
2022-08-12T06:17:42.394Z,64.00
2022-08-12T06:22:50.953Z,63.60
2022-08-12T06:28:06.177Z,63.30
2022-08-12T06:33:23.080Z,62.00
2022-08-12T06:38:31.391Z,61.40
2022-08-12T06:44:04.637Z,61.40
2022-08-12T06:49:07.039Z,60.80
2022-08-12T06:54:11.575Z,60.20
2022-08-12T06:59:15.798Z,60.10
2022-08-12T07:04:37.292Z,59.40
2022-08-12T07:10:06.652Z,58.90
2022-08-12T07:15:06.736Z,58.90
2022-08-12T07:20:29.650Z,58.50
2022-08-12T07:25:44.093Z,58.40
2022-08-12T07:30:50.381Z,57.10
2022-08-12T07:35:54.048Z,56.50
2022-08-12T07:41:03.609Z,56.20
2022-08-12T07:46:20.465Z,56.00
2022-08-12T07:51:29.981Z,55.40
2022-08-12T07:56:42.559Z,55.30
2022-08-12T08:01:45.961Z,54.90
2022-08-12T08:06:52.964Z,54.60
2022-08-12T08:12:18.697Z,54.70
2022-08-12T08:17:23.615Z,54.40
2022-08-12T08:22:42.070Z,54.00
2022-08-12T08:27:54.828Z,54.00
2022-08-12T08:38:32.097Z,54.30
2022-08-12T08:43:44.038Z,54.10
2022-08-12T08:48:47.645Z,53.70
2022-08-12T08:53:52.814Z,53.60
2022-08-12T08:58:57.787Z,53.40
2022-08-12T09:09:23.865Z,52.80
2022-08-12T09:14:29.372Z,52.50
2022-08-12T09:19:33.357Z,52.00
2022-08-12T09:24:36.773Z,51.50
2022-08-12T09:30:10.508Z,51.20
2022-08-12T09:35:03.960Z,51.20
2022-08-12T09:41:01.710Z,50.90
2022-08-12T09:46:19.569Z,50.90
2022-08-12T09:50:58.558Z,50.30
2022-08-12T09:57:00.873Z,49.50
2022-08-12T10:01:34.465Z,49.30
2022-08-12T10:06:54.800Z,49.50
2022-08-12T10:12:31.668Z,49.40
2022-08-12T10:17:36.049Z,49.10
2022-08-12T10:23:00.378Z,48.40
2022-08-12T10:28:25.252Z,48.30
2022-08-12T10:33:31.923Z,48.10
2022-08-12T10:38:41.080Z,48.20
2022-08-12T10:43:55.097Z,48.50
2022-08-12T10:49:06.277Z,48.10
2022-08-12T10:54:28.602Z,48.40
2022-08-12T11:00:29.262Z,48.70
2022-08-12T11:04:59.469Z,47.30
2022-08-12T11:10:26.535Z,47.50
2022-08-12T11:16:04.066Z,47.60
2022-08-12T11:20:54.369Z,46.10
2022-08-12T11:26:05.628Z,46.20
2022-08-12T11:31:13.931Z,46.50
2022-08-12T11:36:22.040Z,47.70
2022-08-12T11:41:31.276Z,47.40
2022-08-12T11:46:37.309Z,47.60
2022-08-12T11:51:40.292Z,48.00
2022-08-12T11:56:59.539Z,48.70
2022-08-12T12:02:04.911Z,48.30
2022-08-12T12:07:11.147Z,48.10
2022-08-12T12:12:14.964Z,48.10
2022-08-12T12:17:18.339Z,48.60
2022-08-12T12:22:23.108Z,48.70
2022-08-12T12:27:39.249Z,48.50
2022-08-12T12:32:53.312Z,47.40
2022-08-12T12:38:05.256Z,46.50
2022-08-12T12:43:15.844Z,45.60
2022-08-12T12:48:21.139Z,45.70
2022-08-12T12:54:06.518Z,45.10
2022-08-12T12:58:51.826Z,44.60
2022-08-12T13:04:02.512Z,44.50
2022-08-12T13:09:08.181Z,44.80
2022-08-12T13:14:28.816Z,43.70
2022-08-12T13:19:46.812Z,43.70
2022-08-12T13:24:56.866Z,43.70
2022-08-12T13:30:03.901Z,44.10
2022-08-12T13:35:20.188Z,44.30
2022-08-12T13:40:33.929Z,44.80
2022-08-12T13:45:36.973Z,43.70
2022-08-12T13:50:43.560Z,43.50
2022-08-12T13:55:49.890Z,42.80
2022-08-12T14:01:05.931Z,42.70
2022-08-12T14:06:09.791Z,42.80
2022-08-12T14:11:25.375Z,42.90
2022-08-12T14:16:47.187Z,42.80
2022-08-12T14:21:59.655Z,42.60
2022-08-12T14:27:09.157Z,42.90
2022-08-12T14:32:16.364Z,43.00
2022-08-12T14:37:56.443Z,42.90
2022-08-12T14:42:46.787Z,42.70
2022-08-12T14:47:53.734Z,43.00
2022-08-12T14:58:27.110Z,43.00
2022-08-12T15:03:52.989Z,42.60
2022-08-12T15:08:54.888Z,42.70
2022-08-12T15:14:00.259Z,42.60
2022-08-12T15:19:07.109Z,43.00
2022-08-12T15:24:26.453Z,43.10
2022-08-12T15:29:29.610Z,42.60
2022-08-12T15:34:33.836Z,42.70
2022-08-12T15:39:36.793Z,42.90
2022-08-12T15:44:42.642Z,43.50
2022-08-12T15:49:59.507Z,44.00
2022-08-12T15:55:06.409Z,44.00
2022-08-12T16:00:29.051Z,44.00
2022-08-12T16:06:11.749Z,43.90
2022-08-12T16:11:15.656Z,43.90
2022-08-12T16:16:23.459Z,44.00
2022-08-12T16:21:52.747Z,43.60
2022-08-12T16:26:54.278Z,43.50
2022-08-12T16:31:59.681Z,43.80
2022-08-12T16:37:13.582Z,44.00
2022-08-12T16:42:21.206Z,44.20
2022-08-12T16:47:27.289Z,44.90
2022-08-12T16:52:30.390Z,45.10
2022-08-12T16:57:35.195Z,45.40
2022-08-12T17:02:40.572Z,45.80
2022-08-12T17:07:47.290Z,46.10
2022-08-12T17:12:55.030Z,46.50
2022-08-12T17:18:15.243Z,46.80
2022-08-12T17:23:23.368Z,47.00
2022-08-12T17:28:28.047Z,47.40
2022-08-12T17:33:34.584Z,47.90
2022-08-12T17:38:38.611Z,48.10
2022-08-12T17:43:52.069Z,48.40
2022-08-12T17:49:06.875Z,48.60
2022-08-12T17:54:27.001Z,48.80
2022-08-12T17:59:48.230Z,49.10
2022-08-12T18:05:04.512Z,49.30
2022-08-12T18:10:10.155Z,49.30
2022-08-12T18:15:26.497Z,49.60
2022-08-12T18:20:44.917Z,50.10
2022-08-12T18:26:13.920Z,50.30
2022-08-12T18:31:23.761Z,50.90
2022-08-12T18:36:29.488Z,51.10
2022-08-12T18:41:35.875Z,51.10
2022-08-12T18:46:55.765Z,51.10
2022-08-12T18:52:04.686Z,51.00
2022-08-12T18:57:19.690Z,51.10
2022-08-12T19:02:40.056Z,51.10
2022-08-12T19:08:00.234Z,51.20
2022-08-12T19:13:25.270Z,51.30
2022-08-12T19:18:38.472Z,51.50
2022-08-12T19:23:43.648Z,51.60
2022-08-12T19:28:49.578Z,52.00
2022-08-12T19:34:23.859Z,52.30
2022-08-12T19:39:25.164Z,52.60
2022-08-12T19:44:37.943Z,52.70
2022-08-12T19:49:54.098Z,52.90
2022-08-12T19:54:58.354Z,53.00
2022-08-12T20:00:06.417Z,53.00
2022-08-12T20:06:03.429Z,53.30
2022-08-12T20:10:35.600Z,53.50
2022-08-12T20:15:45.025Z,54.10
2022-08-12T20:20:49.203Z,54.40
2022-08-12T20:26:01.874Z,54.60
2022-08-12T20:31:11.943Z,54.60
2022-08-12T20:36:41.467Z,54.60
2022-08-12T20:41:42.283Z,54.90
2022-08-12T20:46:45.470Z,55.50
2022-08-12T20:51:54.865Z,55.90
2022-08-12T20:57:00.999Z,56.20
2022-08-12T21:02:05.908Z,56.60
2022-08-12T21:07:10.451Z,57.00
2022-08-12T21:12:28.159Z,57.40
2022-08-12T21:18:08.933Z,57.80
2022-08-12T21:23:00.469Z,58.20
2022-08-12T21:28:06.808Z,58.90
2022-08-12T21:33:14.762Z,59.20
2022-08-12T21:38:19.707Z,59.80
2022-08-12T21:43:26.782Z,60.80
2022-08-12T21:48:41.778Z,59.50
2022-08-12T21:54:06.892Z,59.60
2022-08-12T21:59:15.455Z,59.70
2022-08-12T22:04:37.031Z,59.90
2022-08-12T22:09:42.862Z,59.90
2022-08-12T22:14:49.792Z,60.10
2022-08-12T22:19:52.753Z,60.40
2022-08-12T22:24:58.500Z,61.00
2022-08-12T22:30:20.549Z,61.50
2022-08-12T22:35:55.747Z,62.20
2022-08-12T22:41:33.250Z,63.30
2022-08-12T22:46:54.962Z,63.30
2022-08-12T22:52:01.356Z,63.40
2022-08-12T22:57:11.984Z,63.30
2022-08-12T23:02:17.467Z,63.30
2022-08-12T23:07:36.058Z,63.30
2022-08-12T23:13:14.269Z,63.30
2022-08-12T23:18:18.524Z,63.50
2022-08-12T23:23:21.353Z,63.40
2022-08-12T23:28:44.141Z,63.40
2022-08-12T23:34:01.842Z,63.60
2022-08-12T23:40:13.703Z,63.60
2022-08-12T23:44:38.332Z,63.60
2022-08-12T23:49:56.998Z,63.60
2022-08-12T23:55:24.709Z,63.70
